Main page
METAR-TAF:

METAR-TAF

Airports :

Key West International Airport

Key West, Florida, United States

latitude: 24-33-13N, longitude: 081-45-13W, elevation: 3 ft

Current weather observation

The report was made 1 hour and 6 minutes ago, at 11:53 UTC
Wind 9 mph from the Southeast
Temperature 84°F
Humidity 79%
Pressure 30.04 in. Hg
Visibility: 10 miles
Few clouds at a height of 1200 ft

METAR: KEYW 281153Z 13008KT 10SM FEW012 29/25 A3004 RMK AO2 SLP172 T02890250 10289 20283 53009 $

Time: 08:59 (12:59 UTC)

Forecast

The report was made 1 hour and 34 minutes ago, at 11:25 UTC
Forecast valid from 28 at 12 UTC to 29 at 12 UTC
Wind 10 mph from the Southeast
Visibility: 6 miles
Scattered clouds at a height of 1500 ft
From 28 at 1400 UTC
Wind 13 mph from the Southeast with gusts up to 21 mph
Visibility: 6 miles
Scattered clouds at a height of 2000 ft

TAF: KEYW 281125Z 2812/2912 14009KT P6SM SCT015 FM281400 13011G18KT P6SM SCT020

Weather observations and forecasts of more than 4000 airports (METAR and TAF reports).

The available stations are represented by yellow and red dots on the map.

Hover mouse over dot to see the name of the station.

Then click to see weather observations and forecasts.

To change the map : click on the green buttons with a black cross to zoom in, on the green button with a dash to zoom out, or on the green arrows for adjacent maps.


METAR-TAF: